createdAt,value
2019-02-04T00:02:38.994Z,-0.20
2019-02-04T00:05:42.415Z,-0.20
2019-02-04T00:08:45.877Z,-0.10
2019-02-04T00:11:49.308Z,-0.10
2019-02-04T00:14:52.739Z,0.00
2019-02-04T00:17:56.151Z,0.00
2019-02-04T00:20:59.668Z,0.00
2019-02-04T00:24:03.149Z,0.00
2019-02-04T00:27:06.680Z,-0.10
2019-02-04T00:30:21.484Z,-0.10
2019-02-04T00:33:24.952Z,-0.10
2019-02-04T00:36:28.752Z,-0.10
2019-02-04T00:39:32.216Z,-0.20
2019-02-04T00:42:35.628Z,-0.20
2019-02-04T00:45:39.648Z,-0.20
2019-02-04T00:48:43.077Z,-0.30
2019-02-04T00:51:46.529Z,-0.30
2019-02-04T00:54:50.442Z,-0.40
2019-02-04T00:57:53.885Z,-0.50
2019-02-04T01:00:57.335Z,-0.50
2019-02-04T01:04:01.228Z,-0.60
2019-02-04T01:07:05.457Z,-0.60
2019-02-04T01:10:20.452Z,-0.70
2019-02-04T01:13:23.914Z,-0.50
2019-02-04T01:16:27.394Z,-0.40
2019-02-04T01:19:30.828Z,-0.50
2019-02-04T01:22:34.280Z,-0.60
2019-02-04T01:25:37.717Z,-0.60
2019-02-04T01:28:41.229Z,-0.70
2019-02-04T01:31:44.681Z,-0.70
2019-02-04T01:34:48.938Z,-0.70
2019-02-04T01:37:52.540Z,-0.70
2019-02-04T01:40:55.959Z,-0.80
2019-02-04T01:43:59.400Z,-0.80
2019-02-04T01:47:02.884Z,-0.90
2019-02-04T01:50:09.456Z,-0.80
2019-02-04T01:53:13.253Z,-0.70
2019-02-04T01:56:16.713Z,-0.70
2019-02-04T01:59:20.136Z,-0.70
2019-02-04T02:02:23.957Z,-0.70
2019-02-04T02:05:27.379Z,-0.70
2019-02-04T02:08:30.832Z,-0.70
2019-02-04T02:11:34.537Z,-0.50
2019-02-04T02:14:37.996Z,-0.30
2019-02-04T02:17:41.684Z,-0.20
2019-02-04T02:20:45.136Z,-0.10
2019-02-04T02:23:48.554Z,0.00
2019-02-04T02:26:51.996Z,0.00
2019-02-04T02:29:55.416Z,0.00
2019-02-04T02:32:58.856Z,0.10
2019-02-04T02:36:02.301Z,0.10
2019-02-04T02:39:07.816Z,0.10
2019-02-04T02:42:11.292Z,0.10
2019-02-04T02:45:14.696Z,0.10
2019-02-04T02:48:18.142Z,0.10
2019-02-04T02:51:21.556Z,0.20
2019-02-04T02:54:25.077Z,0.20
2019-02-04T02:57:28.505Z,0.20
2019-02-04T03:00:32.033Z,0.30
2019-02-04T03:03:35.454Z,0.30
2019-02-04T03:06:38.945Z,0.40
2019-02-04T03:09:42.368Z,0.40
2019-02-04T03:12:45.813Z,0.40
2019-02-04T03:15:52.377Z,0.40
2019-02-04T03:18:55.792Z,0.40
2019-02-04T03:21:59.321Z,0.30
2019-02-04T03:25:02.734Z,0.20
2019-02-04T03:28:06.188Z,0.20
2019-02-04T03:31:09.609Z,0.10
2019-02-04T03:34:13.045Z,0.10
2019-02-04T03:37:16.486Z,0.20
2019-02-04T03:40:25.252Z,0.30
2019-02-04T03:43:28.695Z,0.40
2019-02-04T03:46:32.133Z,0.40
2019-02-04T03:49:35.578Z,0.40
2019-02-04T03:52:38.996Z,0.50
2019-02-04T03:55:42.833Z,0.60
2019-02-04T03:58:46.252Z,0.60
2019-02-04T04:01:49.787Z,0.50
2019-02-04T04:04:53.484Z,0.50
2019-02-04T04:07:56.945Z,0.50
2019-02-04T04:11:00.355Z,0.40
2019-02-04T04:14:03.889Z,0.40
2019-02-04T04:17:07.297Z,0.50
2019-02-04T04:20:13.192Z,0.60
2019-02-04T04:23:16.597Z,0.70
2019-02-04T04:26:20.056Z,0.90
2019-02-04T04:29:23.471Z,0.90
2019-02-04T04:32:26.904Z,0.90
2019-02-04T04:35:30.324Z,0.90
2019-02-04T04:38:33.779Z,1.00
2019-02-04T04:41:37.192Z,1.00
2019-02-04T04:44:40.644Z,1.00
2019-02-04T04:47:44.064Z,1.10
2019-02-04T04:50:47.501Z,1.10
2019-02-04T04:53:50.985Z,1.10
2019-02-04T04:56:57.376Z,1.20
2019-02-04T05:00:00.793Z,1.10
2019-02-04T05:03:04.232Z,1.20
2019-02-04T05:06:07.673Z,1.20
2019-02-04T05:09:11.106Z,1.20
2019-02-04T05:12:14.544Z,1.10
2019-02-04T05:15:26.295Z,1.10
2019-02-04T05:18:37.664Z,1.20
2019-02-04T05:21:34.936Z,1.20
2019-02-04T05:24:38.399Z,1.30
2019-02-04T05:27:41.813Z,1.30
2019-02-04T05:30:45.628Z,1.30
2019-02-04T05:33:49.058Z,1.30
2019-02-04T05:36:52.567Z,1.40
2019-02-04T05:39:56.360Z,1.40
2019-02-04T05:42:59.800Z,1.40
2019-02-04T05:46:03.244Z,1.40
2019-02-04T05:49:07.027Z,1.30
2019-02-04T05:52:10.464Z,1.30
2019-02-04T05:55:14.736Z,1.20
2019-02-04T05:58:18.432Z,1.20
2019-02-04T06:01:21.864Z,1.20
2019-02-04T06:04:25.302Z,1.20
2019-02-04T06:07:29.005Z,1.10
2019-02-04T06:10:32.460Z,1.20
2019-02-04T06:13:35.875Z,1.20
2019-02-04T06:16:39.312Z,1.20
2019-02-04T06:19:42.724Z,1.20
2019-02-04T06:22:46.228Z,1.30
2019-02-04T06:25:49.688Z,1.20
2019-02-04T06:28:53.098Z,1.20
2019-02-04T06:31:56.542Z,1.20
2019-02-04T06:34:59.950Z,1.30
2019-02-04T06:38:05.521Z,1.30
2019-02-04T06:41:08.944Z,1.20
2019-02-04T06:44:12.391Z,1.20
2019-02-04T06:47:15.806Z,1.20
2019-02-04T06:50:20.806Z,1.20
2019-02-04T06:53:24.228Z,1.10
2019-02-04T06:56:27.676Z,1.20
2019-02-04T06:59:31.089Z,1.10
2019-02-04T07:02:34.528Z,1.10
2019-02-04T07:05:43.854Z,1.10
2019-02-04T07:08:43.120Z,1.00
2019-02-04T07:11:46.538Z,0.80
2019-02-04T07:14:50.077Z,0.80
2019-02-04T07:17:53.560Z,0.70
2019-02-04T07:20:57.007Z,0.70
2019-02-04T07:24:00.428Z,1.00
2019-02-04T07:27:04.057Z,1.50
2019-02-04T07:30:13.229Z,2.10
2019-02-04T07:33:16.646Z,2.70
2019-02-04T07:36:20.100Z,3.30
2019-02-04T07:39:23.508Z,3.80
2019-02-04T07:42:26.962Z,4.40
2019-02-04T07:45:30.366Z,4.70
2019-02-04T07:48:33.808Z,5.00
2019-02-04T07:51:37.216Z,5.30
2019-02-04T07:54:40.660Z,5.60
2019-02-04T07:57:44.068Z,5.80
2019-02-04T08:00:47.508Z,6.20
2019-02-04T08:03:50.924Z,6.30
2019-02-04T08:06:54.362Z,6.60
2019-02-04T08:09:57.803Z,6.70
2019-02-04T08:13:02.089Z,6.60
2019-02-04T08:16:06.306Z,6.50
2019-02-04T08:19:09.712Z,6.60
2019-02-04T08:22:13.180Z,6.60
2019-02-04T08:25:17.434Z,6.60
2019-02-04T08:28:20.876Z,6.60
2019-02-04T08:31:24.316Z,6.60
2019-02-04T08:34:27.827Z,6.30
2019-02-04T08:37:31.248Z,6.10
2019-02-04T08:40:34.679Z,6.10
2019-02-04T08:43:38.096Z,5.90
2019-02-04T08:46:41.531Z,5.60
2019-02-04T08:49:44.952Z,5.60
2019-02-04T08:52:48.400Z,5.70
2019-02-04T08:55:51.808Z,5.80
2019-02-04T08:58:55.249Z,5.70
2019-02-04T09:01:58.940Z,5.60
2019-02-04T09:05:02.477Z,5.50
2019-02-04T09:08:05.956Z,5.40
2019-02-04T09:11:09.844Z,5.20
2019-02-04T09:14:13.289Z,5.00
2019-02-04T09:17:16.720Z,4.90
2019-02-04T09:20:20.773Z,4.90
2019-02-04T09:23:24.188Z,5.00
2019-02-04T09:26:27.625Z,4.80
2019-02-04T09:29:31.436Z,4.80
2019-02-04T09:32:34.844Z,4.80
2019-02-04T09:35:38.304Z,4.80
2019-02-04T09:38:41.715Z,4.80
2019-02-04T09:41:45.152Z,4.70
2019-02-04T09:44:48.580Z,4.80
2019-02-04T09:47:52.089Z,4.90
2019-02-04T09:50:55.576Z,5.10
2019-02-04T09:53:59.050Z,5.10
2019-02-04T09:57:02.509Z,5.20
2019-02-04T10:00:09.043Z,5.30
2019-02-04T10:03:12.489Z,5.40
2019-02-04T10:06:15.972Z,5.40
2019-02-04T10:09:19.385Z,5.40
2019-02-04T10:12:22.848Z,5.30
2019-02-04T10:15:29.366Z,5.40
2019-02-04T10:18:32.844Z,5.40
2019-02-04T10:21:36.382Z,5.60
2019-02-04T10:24:39.881Z,5.60
2019-02-04T10:27:43.778Z,5.60
2019-02-04T10:30:47.278Z,5.50
2019-02-04T10:33:51.086Z,5.60
2019-02-04T10:36:54.565Z,5.70
2019-02-04T10:39:58.001Z,5.80
2019-02-04T10:43:01.834Z,5.80
2019-02-04T10:46:05.447Z,5.90
2019-02-04T10:49:09.049Z,6.10
2019-02-04T10:52:12.778Z,6.10
2019-02-04T10:55:16.441Z,6.10
2019-02-04T10:58:20.070Z,6.10
2019-02-04T11:01:23.945Z,6.10
2019-02-04T11:04:27.382Z,6.10
2019-02-04T11:07:30.902Z,6.10
2019-02-04T11:10:35.973Z,6.20
2019-02-04T11:13:39.393Z,6.20
2019-02-04T11:16:42.859Z,6.10
2019-02-04T11:19:46.367Z,6.20
2019-02-04T11:22:50.045Z,6.20
2019-02-04T11:25:53.526Z,6.10
2019-02-04T11:28:57.067Z,6.00
2019-02-04T11:32:00.515Z,6.00
2019-02-04T11:35:05.162Z,5.90
2019-02-04T11:38:09.292Z,5.90
2019-02-04T11:41:12.779Z,5.80
2019-02-04T11:44:16.261Z,5.80
2019-02-04T11:47:19.808Z,5.60
2019-02-04T11:50:23.268Z,5.50
2019-02-04T11:53:32.914Z,5.50
2019-02-04T11:56:31.852Z,5.40
2019-02-04T11:59:35.301Z,5.50
2019-02-04T12:02:38.792Z,5.40
2019-02-04T12:05:42.228Z,5.40
2019-02-04T12:08:45.658Z,5.60
2019-02-04T12:11:49.092Z,5.70
2019-02-04T12:14:52.540Z,5.70
2019-02-04T12:17:55.948Z,5.80
2019-02-04T12:20:59.393Z,5.70
2019-02-04T12:24:02.892Z,5.60
2019-02-04T12:27:06.337Z,5.60
2019-02-04T12:30:21.116Z,5.50
2019-02-04T12:33:24.565Z,5.60
2019-02-04T12:36:27.988Z,5.60
2019-02-04T12:39:31.465Z,5.60
2019-02-04T12:42:34.876Z,5.60
2019-02-04T12:45:41.360Z,5.40
2019-02-04T12:48:44.776Z,5.30
2019-02-04T12:51:48.220Z,5.30
2019-02-04T12:54:51.633Z,5.30
2019-02-04T12:57:55.061Z,5.30
2019-02-04T13:00:58.499Z,5.30
2019-02-04T13:04:02.328Z,5.30
2019-02-04T13:07:05.787Z,5.20
2019-02-04T13:10:11.989Z,5.10
2019-02-04T13:13:18.448Z,5.00
2019-02-04T13:16:21.884Z,5.00
2019-02-04T13:19:25.300Z,5.00
2019-02-04T13:22:28.799Z,5.00
2019-02-04T13:25:32.309Z,5.00
2019-02-04T13:28:35.729Z,5.10
2019-02-04T13:31:39.447Z,5.10
2019-02-04T13:34:42.857Z,5.10
2019-02-04T13:37:46.286Z,5.10
2019-02-04T13:40:49.930Z,5.10
2019-02-04T13:43:53.331Z,4.90
2019-02-04T13:46:56.778Z,4.90
2019-02-04T13:50:00.264Z,4.90
2019-02-04T13:53:03.872Z,4.90
2019-02-04T13:56:07.314Z,4.90
2019-02-04T13:59:10.760Z,4.80
2019-02-04T14:02:14.177Z,4.80
2019-02-04T14:05:17.685Z,4.80
2019-02-04T14:08:21.088Z,4.80
2019-02-04T14:11:24.516Z,4.80
2019-02-04T14:14:27.920Z,4.70
2019-02-04T14:17:31.436Z,4.70
2019-02-04T14:20:36.550Z,4.60
2019-02-04T14:23:39.989Z,4.60
2019-02-04T14:26:43.396Z,4.60
2019-02-04T14:29:46.859Z,4.40
2019-02-04T14:32:50.252Z,4.30
2019-02-04T14:35:53.741Z,4.30
2019-02-04T14:38:57.180Z,4.20
2019-02-04T14:42:00.947Z,4.20
2019-02-04T14:45:25.870Z,4.30
2019-02-04T14:49:04.204Z,4.40
2019-02-04T14:52:22.031Z,4.30
2019-02-04T14:55:34.420Z,4.20
2019-02-04T14:58:45.652Z,4.20
2019-02-04T15:01:57.850Z,4.10
2019-02-04T15:05:04.336Z,4.10
2019-02-04T15:08:13.566Z,4.10
2019-02-04T15:11:22.972Z,4.10
2019-02-04T15:14:55.397Z,4.00
2019-02-04T15:18:04.480Z,4.10
2019-02-04T15:21:34.448Z,4.00
2019-02-04T15:24:46.976Z,4.00
2019-02-04T15:28:02.640Z,3.90
2019-02-04T15:31:14.885Z,3.90
2019-02-04T15:34:42.696Z,3.90
2019-02-04T15:38:09.836Z,3.90
2019-02-04T15:41:16.332Z,3.90
2019-02-04T15:44:43.504Z,3.80
2019-02-04T15:47:49.980Z,3.80
2019-02-04T15:50:56.479Z,3.70
2019-02-04T15:54:04.709Z,3.60
2019-02-04T15:57:08.335Z,3.60
2019-02-04T16:00:17.652Z,3.50
2019-02-04T16:03:28.093Z,3.50
2019-02-04T16:06:31.501Z,3.50
2019-02-04T16:09:34.932Z,3.50
2019-02-04T16:12:38.355Z,3.40
2019-02-04T16:15:42.370Z,3.40
2019-02-04T16:18:45.980Z,3.30
2019-02-04T16:21:51.413Z,3.30
2019-02-04T16:24:54.825Z,3.30
2019-02-04T16:27:58.271Z,3.30
2019-02-04T16:31:01.741Z,3.30
2019-02-04T16:34:05.233Z,3.30
2019-02-04T16:37:08.661Z,3.30
2019-02-04T16:40:15.516Z,3.20
2019-02-04T16:43:20.884Z,3.20
2019-02-04T16:46:24.296Z,3.20
2019-02-04T16:49:33.809Z,3.10
2019-02-04T16:52:48.249Z,3.10
2019-02-04T16:56:02.118Z,3.10
2019-02-04T16:59:05.693Z,3.00
2019-02-04T17:02:09.378Z,3.00
2019-02-04T17:05:26.980Z,3.10
2019-02-04T17:08:31.368Z,3.10
2019-02-04T17:11:34.777Z,3.10
2019-02-04T17:14:40.116Z,3.10
2019-02-04T17:17:44.584Z,3.10
2019-02-04T17:20:48.024Z,3.10
2019-02-04T17:23:51.458Z,3.10
2019-02-04T17:26:55.844Z,3.10
2019-02-04T17:29:59.330Z,3.00
2019-02-04T17:33:06.118Z,3.10
2019-02-04T17:36:09.525Z,3.00
2019-02-04T17:39:13.123Z,3.00
2019-02-04T17:42:16.602Z,3.00
2019-02-04T17:45:20.033Z,3.00
2019-02-04T17:48:23.460Z,3.00
2019-02-04T17:51:26.884Z,3.00
2019-02-04T17:54:36.101Z,2.90
2019-02-04T17:57:39.528Z,2.90
2019-02-04T18:00:45.048Z,2.90
2019-02-04T18:04:06.984Z,2.90
2019-02-04T18:07:10.456Z,2.80
2019-02-04T18:10:16.824Z,2.70
2019-02-04T18:13:28.328Z,2.60
2019-02-04T18:16:31.767Z,2.60
2019-02-04T18:19:35.200Z,2.60
2019-02-04T18:22:38.609Z,2.60
2019-02-04T18:25:59.209Z,2.60
2019-02-04T18:29:12.629Z,2.50
2019-02-04T18:32:18.095Z,2.60
2019-02-04T18:35:22.946Z,2.60
2019-02-04T18:38:29.508Z,2.60
2019-02-04T18:41:52.022Z,2.60
2019-02-04T18:44:59.556Z,2.60
2019-02-04T18:48:03.056Z,2.60
2019-02-04T18:51:06.869Z,2.60
2019-02-04T18:54:11.285Z,2.60
2019-02-04T18:57:16.272Z,2.50
2019-02-04T19:00:22.171Z,2.50
2019-02-04T19:03:26.596Z,2.60
2019-02-04T19:06:30.008Z,2.50
2019-02-04T19:09:40.444Z,2.50
2019-02-04T19:12:53.084Z,2.60
2019-02-04T19:16:06.625Z,2.50
2019-02-04T19:19:10.030Z,2.50
2019-02-04T19:22:13.463Z,2.50
2019-02-04T19:25:18.832Z,2.50
2019-02-04T19:28:22.316Z,2.50
2019-02-04T19:31:31.787Z,2.50
2019-02-04T19:34:38.262Z,2.50
2019-02-04T19:37:42.705Z,2.50
2019-02-04T19:40:48.986Z,2.50
2019-02-04T19:43:53.315Z,2.40
2019-02-04T19:46:56.910Z,2.40
2019-02-04T19:50:00.354Z,2.40
2019-02-04T19:53:04.644Z,2.40
2019-02-04T19:56:14.836Z,2.30
2019-02-04T19:59:21.063Z,2.30
2019-02-04T20:02:23.391Z,2.20
2019-02-04T20:05:28.562Z,2.20
2019-02-04T20:08:41.332Z,2.20
2019-02-04T20:11:44.760Z,2.20
2019-02-04T20:14:48.168Z,2.20
2019-02-04T20:17:59.412Z,2.20
2019-02-04T20:21:02.824Z,2.30
2019-02-04T20:24:06.760Z,2.30
2019-02-04T20:27:10.172Z,2.30
2019-02-04T20:30:46.669Z,2.40
2019-02-04T20:33:52.792Z,2.50
2019-02-04T20:37:08.304Z,2.50
2019-02-04T20:40:23.096Z,2.50
2019-02-04T20:43:26.546Z,2.50
2019-02-04T20:46:31.977Z,2.60
2019-02-04T20:49:36.404Z,2.60
2019-02-04T20:52:48.888Z,2.60
2019-02-04T20:55:53.229Z,2.70
2019-02-04T20:58:56.652Z,2.70
2019-02-04T21:02:00.462Z,2.70
2019-02-04T21:05:05.313Z,2.70
2019-02-04T21:08:15.032Z,2.70
2019-02-04T21:11:28.428Z,2.70
2019-02-04T21:14:49.332Z,2.80
2019-02-04T21:17:52.924Z,2.70
2019-02-04T21:20:59.418Z,2.70
2019-02-04T21:24:02.848Z,2.70
2019-02-04T21:27:09.285Z,2.70
2019-02-04T21:30:18.652Z,2.70
2019-02-04T21:33:23.039Z,2.70
2019-02-04T21:36:26.836Z,2.80
2019-02-04T21:39:30.261Z,2.80
2019-02-04T21:42:33.685Z,2.80
2019-02-04T21:45:38.253Z,2.80
2019-02-04T21:48:43.654Z,2.80
2019-02-04T21:51:48.069Z,2.80
2019-02-04T21:54:51.855Z,2.90
2019-02-04T21:57:55.280Z,2.90
2019-02-04T22:00:59.684Z,2.90
2019-02-04T22:04:04.745Z,2.90
2019-02-04T22:07:09.729Z,2.90
2019-02-04T22:10:16.212Z,2.90
2019-02-04T22:13:19.644Z,2.90
2019-02-04T22:16:23.556Z,3.00
2019-02-04T22:19:27.355Z,3.00
2019-02-04T22:22:30.768Z,3.00
2019-02-04T22:25:34.195Z,3.00
2019-02-04T22:28:43.590Z,3.00
2019-02-04T22:31:47.084Z,3.00
2019-02-04T22:34:50.788Z,2.90
2019-02-04T22:37:56.141Z,3.00
2019-02-04T22:40:59.556Z,3.00
2019-02-04T22:44:05.149Z,3.00
2019-02-04T22:47:17.588Z,3.10
2019-02-04T22:50:26.204Z,3.10
2019-02-04T22:53:29.622Z,3.10
2019-02-04T22:56:34.973Z,3.10
2019-02-04T22:59:39.375Z,3.10
2019-02-04T23:02:43.295Z,3.10
2019-02-04T23:05:46.696Z,3.10
2019-02-04T23:08:59.008Z,3.10
2019-02-04T23:12:08.228Z,3.10
2019-02-04T23:15:11.740Z,3.00
2019-02-04T23:18:15.388Z,3.00
2019-02-04T23:21:18.840Z,3.00
2019-02-04T23:24:22.244Z,3.00
2019-02-04T23:27:33.539Z,3.00
2019-02-04T23:30:38.932Z,3.00
2019-02-04T23:33:48.836Z,3.00
2019-02-04T23:36:58.724Z,3.10
2019-02-04T23:40:02.152Z,3.10
2019-02-04T23:43:05.697Z,3.10
2019-02-04T23:46:11.131Z,3.00
2019-02-04T23:49:14.542Z,3.00
2019-02-04T23:52:17.983Z,3.00
2019-02-04T23:55:21.402Z,3.00
2019-02-04T23:58:24.836Z,3.00
